Time;durP1;ratioP1;P1;durP2;ratioP2;P2;SDS_P1;SDS_P2;PMS_P1;PMS_P2;Temp;Humidity;BMP_temperature;BMP_pressure;BME280_temperature;BME280_humidity;BME280_pressure;Samples;Min_cycle;Max_cycle;Signal;HPM_P1;HPM_P2
2021/03/30 00:02:15;;;;;;;197.80;118.30;;;;;;;-140.79;100.00;63287.88;4975023;28;20050;-89
2021/03/30 00:04:40;;;;;;;176.13;109.05;;;;;;;-140.79;100.00;63287.88;4981796;28;20118;-88
2021/03/30 00:07:06;;;;;;;90.40;70.78;;;;;;;-140.79;100.00;63287.88;4955186;29;20023;-89
2021/03/30 00:09:31;;;;;;;149.20;98.63;;;;;;;-140.79;100.00;63287.88;4955356;29;20031;-89
2021/03/30 00:11:57;;;;;;;161.30;103.97;;;;;;;-140.79;100.00;63287.88;4963698;28;20027;-89
2021/03/30 00:14:22;;;;;;;154.65;100.35;;;;;;;-140.79;100.00;63287.88;4964421;28;20027;-89
2021/03/30 00:16:48;;;;;;;144.00;97.18;;;;;;;-140.79;100.00;63287.88;4956105;29;20098;-89
2021/03/30 00:19:13;;;;;;;121.65;85.50;;;;;;;-140.79;100.00;63287.88;4954673;28;20027;-90
2021/03/30 00:21:38;;;;;;;95.47;74.30;;;;;;;-140.79;100.00;63287.88;4954596;29;20094;-89
2021/03/30 00:24:04;;;;;;;112.78;83.18;;;;;;;-140.79;100.00;63287.88;4938565;29;20035;-87
2021/03/30 00:26:34;;;;;;;122.93;87.82;;;;;;;-140.79;100.00;63287.88;4956164;29;20492;-89
2021/03/30 00:29:00;;;;;;;114.25;84.80;;;;;;;-140.79;100.00;63287.88;4954425;29;20031;-89
2021/03/30 00:31:25;;;;;;;61.60;54.90;;;;;;;-140.79;100.00;63287.88;4952488;29;20031;-89
2021/03/30 00:33:51;;;;;;;96.50;75.53;;;;;;;-140.79;100.00;63287.88;4955759;29;20038;-89
2021/03/30 00:36:16;;;;;;;85.57;69.20;;;;;;;-140.79;100.00;63287.88;4957517;29;20040;-89
2021/03/30 00:38:42;;;;;;;92.03;71.65;;;;;;;-140.79;100.00;63287.88;4952164;29;20066;-89
2021/03/30 00:41:07;;;;;;;109.10;80.20;;;;;;;-140.79;100.00;63287.88;4950848;29;20511;-89
2021/03/30 00:43:33;;;;;;;127.20;89.63;;;;;;;-140.79;100.00;63287.88;4951651;29;20107;-89
2021/03/30 00:45:58;;;;;;;16.20;14.93;;;;;;;-140.79;100.00;63287.88;4970059;28;20038;-90
2021/03/30 00:48:25;;;;;;;17.85;16.45;;;;;;;-140.79;100.00;63287.88;4974195;28;20030;-89
2021/03/30 00:50:51;;;;;;;3.08;1.90;;;;;;;-140.79;100.00;63287.88;4957494;28;20023;-88
2021/03/30 00:53:16;;;;;;;5.50;5.00;;;;;;;-140.79;100.00;63287.88;4973941;28;20031;-88
2021/03/30 00:55:42;;;;;;;34.42;31.73;;;;;;;-140.79;100.00;63287.88;4973508;28;20035;-89
2021/03/30 00:58:08;;;;;;;43.13;39.40;;;;;;;-140.79;100.00;63287.88;4973439;28;20014;-88
2021/03/30 01:00:33;;;;;;;60.95;54.78;;;;;;;-140.79;100.00;63287.88;4973004;28;20439;-88
2021/03/30 01:02:59;;;;;;;89.88;72.10;;;;;;;-140.79;100.00;63287.88;4973620;28;20134;-88
2021/03/30 01:05:24;;;;;;;84.85;70.18;;;;;;;-140.79;100.00;63287.88;4973229;28;20042;-88
2021/03/30 01:08:11;;;;;;;100.07;77.13;;;;;;;-140.79;100.00;63287.88;4973175;28;20030;-88
2021/03/30 01:11:16;;;;;;;83.90;68.82;;;;;;;-140.79;100.00;63287.88;4973459;28;20054;-89
2021/03/30 01:14:06;;;;;;;95.20;73.90;;;;;;;-140.79;100.00;63287.88;4955516;28;20050;-88
2021/03/30 01:16:43;;;;;;;92.57;72.68;;;;;;;-140.79;100.00;63287.88;4973295;28;20539;-88
2021/03/30 01:19:26;;;;;;;107.03;79.75;;;;;;;-140.79;100.00;63287.88;4958003;28;20053;-87
2021/03/30 01:22:31;;;;;;;108.47;80.18;;;;;;;-140.79;100.00;63287.88;4989462;28;20031;-89
2021/03/30 01:25:00;;;;;;;109.05;80.55;;;;;;;-140.79;100.00;63287.88;4955723;28;20121;-88
2021/03/30 01:27:37;;;;;;;107.07;80.68;;;;;;;-140.79;100.00;63287.88;4957429;28;20038;-89
2021/03/30 01:30:04;;;;;;;112.88;83.30;;;;;;;-140.79;100.00;63287.88;4973161;28;20038;-89
2021/03/30 01:32:39;;;;;;;114.68;84.13;;;;;;;-140.79;100.00;63287.88;4974309;28;20023;-89
2021/03/30 01:35:09;;;;;;;109.10;81.22;;;;;;;-140.79;100.00;63287.88;4973259;28;20069;-89
2021/03/30 01:37:38;;;;;;;125.35;87.80;;;;;;;-140.79;100.00;63287.88;4962175;28;20034;-88
2021/03/30 01:40:04;;;;;;;122.72;85.97;;;;;;;-140.79;100.00;63287.88;4972056;28;20033;-89
2021/03/30 01:42:30;;;;;;;93.68;67.82;;;;;;;-140.79;100.00;63287.88;4938069;29;20419;-89
2021/03/30 01:44:55;;;;;;;32.67;30.00;;;;;;;-140.79;100.00;63287.88;4938227;29;20098;-88
2021/03/30 01:47:21;;;;;;;43.85;40.15;;;;;;;-140.79;100.00;63287.88;4953551;29;20050;-88
2021/03/30 01:49:46;;;;;;;168.85;108.95;;;;;;;-140.79;100.00;63287.88;4938899;29;20019;-88
2021/03/30 01:52:14;;;;;;;179.68;112.80;;;;;;;-140.79;100.00;63287.88;4953080;28;20019;-89
2021/03/30 01:54:39;;;;;;;153.15;99.95;;;;;;;-140.79;100.00;63287.88;4938474;29;20027;-89
2021/03/30 01:57:05;;;;;;;129.02;89.45;;;;;;;-140.79;100.00;63287.88;4948136;28;20043;-88
2021/03/30 01:59:31;;;;;;;71.45;58.53;;;;;;;-140.79;100.00;63287.88;4950445;29;20063;-88
2021/03/30 02:01:57;;;;;;;165.40;106.60;;;;;;;-140.79;100.00;63287.88;4951694;28;20055;-88
2021/03/30 02:04:23;;;;;;;173.63;109.60;;;;;;;-140.79;100.00;63287.88;4954408;28;20058;-88
2021/03/30 02:06:49;;;;;;;158.38;104.13;;;;;;;-140.79;100.00;63287.88;4953730;29;20416;-88
2021/03/30 02:09:19;;;;;;;153.32;102.10;;;;;;;-140.79;100.00;63287.88;4956007;28;20038;-88
2021/03/30 02:11:49;;;;;;;166.65;106.45;;;;;;;-140.79;100.00;63287.88;4957867;28;20059;-89
2021/03/30 02:14:15;;;;;;;;;;;;;;;-140.79;100.00;63287.88;4957626;28;20035;-88
2021/03/30 02:16:47;;;;;;;150.88;98.05;;;;;;;-140.79;100.00;63287.88;4973319;28;20348;-88
2021/03/30 02:19:14;;;;;;;229.55;133.20;;;;;;;-140.79;100.00;63287.88;4957242;28;20488;-88
2021/03/30 02:21:53;;;;;;;222.13;129.18;;;;;;;-140.79;100.00;63287.88;4956607;28;20500;-88
2021/03/30 02:24:19;;;;;;;240.85;137.63;;;;;;;-140.79;100.00;63287.88;4941071;29;20031;-88
2021/03/30 02:26:45;;;;;;;223.13;127.93;;;;;;;-140.79;100.00;63287.88;4968704;28;20093;-88
2021/03/30 02:29:13;;;;;;;259.65;145.85;;;;;;;-140.79;100.00;63287.88;4992627;28;20423;-89
2021/03/30 02:31:39;;;;;;;242.82;138.27;;;;;;;-140.79;100.00;63287.88;4991855;28;20034;-90
2021/03/30 02:34:05;;;;;;;180.13;109.53;;;;;;;-140.79;100.00;63287.88;4991580;28;20031;-89
2021/03/30 02:36:31;;;;;;;238.77;137.85;;;;;;;-140.79;100.00;63287.88;4976411;28;20027;-89
2021/03/30 02:39:16;;;;;;;224.07;130.43;;;;;;;-140.79;100.00;63287.88;4975530;28;20027;-89
2021/03/30 02:41:42;;;;;;;241.07;136.43;;;;;;;-140.79;100.00;63287.88;4989860;28;20086;-89
2021/03/30 02:44:09;;;;;;;217.63;126.05;;;;;;;-140.79;100.00;63287.88;4961241;28;20035;-89
2021/03/30 02:46:34;;;;;;;214.43;124.32;;;;;;;-140.79;100.00;63287.88;4946268;28;20038;-89
2021/03/30 02:49:00;;;;;;;244.38;137.65;;;;;;;-140.79;100.00;63287.88;4953475;29;20122;-87
2021/03/30 02:51:26;;;;;;;196.50;116.40;;;;;;;-140.79;100.00;63287.88;4952718;29;20040;-88
2021/03/30 02:53:53;;;;;;;300.25;168.48;;;;;;;-140.79;100.00;63287.88;4953043;28;20118;-89
2021/03/30 02:56:18;;;;;;;292.60;164.27;;;;;;;-140.79;100.00;63287.88;4969087;28;20065;-88
2021/03/30 02:58:44;;;;;;;278.17;157.00;;;;;;;-140.79;100.00;63287.88;4990735;28;20022;-88
2021/03/30 03:01:09;;;;;;;234.90;131.15;;;;;;;-140.79;100.00;63287.88;4991432;28;20031;-88
2021/03/30 03:03:35;;;;;;;259.33;144.27;;;;;;;-140.79;100.00;63287.88;4991876;28;20413;-89
2021/03/30 03:06:00;;;;;;;259.50;146.27;;;;;;;-140.79;100.00;63287.88;4959100;28;20034;-88
2021/03/30 03:08:26;;;;;;;250.43;140.43;;;;;;;-140.79;100.00;63287.88;4992424;28;20031;-88
2021/03/30 03:10:52;;;;;;;249.18;136.60;;;;;;;-140.79;100.00;63287.88;4998173;28;20101;-89
2021/03/30 03:13:17;;;;;;;224.07;126.70;;;;;;;-140.79;100.00;63287.88;4995123;28;20090;-89
2021/03/30 03:15:42;;;;;;;231.52;133.18;;;;;;;-140.79;100.00;63287.88;4981462;28;20031;-89
2021/03/30 03:18:08;;;;;;;199.38;116.25;;;;;;;-140.79;100.00;63287.88;4981678;28;20045;-89
2021/03/30 03:20:34;;;;;;;269.67;151.90;;;;;;;-140.79;100.00;63287.88;4982688;28;20031;-90
2021/03/30 03:23:00;;;;;;;311.83;172.43;;;;;;;-140.79;100.00;63287.88;4981954;28;20035;-88
2021/03/30 03:25:26;;;;;;;313.77;175.55;;;;;;;-140.79;100.00;63287.88;4977277;28;20117;-89
2021/03/30 03:27:52;;;;;;;306.20;171.93;;;;;;;-140.79;100.00;63287.88;4987030;28;20022;-89
2021/03/30 03:30:18;;;;;;;314.35;174.77;;;;;;;-140.79;100.00;63287.88;4982387;28;20231;-89
2021/03/30 03:32:43;;;;;;;308.98;171.80;;;;;;;-140.79;100.00;63287.88;4990072;28;20035;-89
2021/03/30 03:35:10;;;;;;;283.73;157.85;;;;;;;-140.79;100.00;63287.88;4990703;28;20091;-89
2021/03/30 03:37:43;;;;;;;284.23;158.63;;;;;;;-140.79;100.00;63287.88;4984821;28;20067;-88
2021/03/30 03:40:09;;;;;;;173.65;107.00;;;;;;;-140.79;100.00;63287.88;4964209;28;20630;-89
2021/03/30 03:42:36;;;;;;;249.43;144.73;;;;;;;-140.79;100.00;63287.88;4979510;28;20047;-90
2021/03/30 03:45:03;;;;;;;293.75;165.85;;;;;;;-140.79;100.00;63287.88;4976424;28;20030;-89
2021/03/30 03:47:28;;;;;;;296.55;167.23;;;;;;;-140.79;100.00;63287.88;4973938;28;20035;-80
2021/03/30 03:49:54;;;;;;;249.77;145.57;;;;;;;-140.79;100.00;63287.88;4970705;28;20097;-87
2021/03/30 03:52:19;;;;;;;343.45;189.57;;;;;;;-140.79;100.00;63287.88;4951490;28;20165;-90
2021/03/30 03:54:45;;;;;;;151.02;100.03;;;;;;;-140.79;100.00;63287.88;4959335;28;20042;-85
2021/03/30 03:57:17;;;;;;;350.83;195.38;;;;;;;-140.79;100.00;63287.88;4968957;28;20488;-82
2021/03/30 03:59:44;;;;;;;372.25;209.63;;;;;;;-140.79;100.00;63287.88;4957946;28;20027;-81
2021/03/30 04:02:13;;;;;;;360.42;201.57;;;;;;;-140.79;100.00;63287.88;4988686;28;20035;-85
2021/03/30 04:04:52;;;;;;;368.27;206.60;;;;;;;-140.79;100.00;63287.88;4974542;28;20050;-79
2021/03/30 04:07:37;;;;;;;373.00;208.43;;;;;;;-140.79;100.00;63287.88;4987452;28;20034;-86
2021/03/30 04:10:03;;;;;;;371.85;205.82;;;;;;;-140.79;100.00;63287.88;4972114;28;20027;-87
2021/03/30 04:12:31;;;;;;;348.88;192.95;;;;;;;-140.79;100.00;63287.88;4988424;28;20495;-83
2021/03/30 04:14:57;;;;;;;298.17;174.60;;;;;;;-140.79;100.00;63287.88;4972225;28;20034;-86
2021/03/30 04:17:22;;;;;;;381.85;213.05;;;;;;;-140.79;100.00;63287.88;4981563;28;20562;-76
2021/03/30 04:19:48;;;;;;;388.45;218.98;;;;;;;-140.79;100.00;63287.88;4959284;28;20055;-91
2021/03/30 04:22:16;;;;;;;396.60;224.00;;;;;;;-140.79;100.00;63287.88;4973684;28;20031;-92
2021/03/30 04:24:42;;;;;;;419.88;239.93;;;;;;;-140.79;100.00;63287.88;4959452;28;20049;-91
2021/03/30 04:27:11;;;;;;;228.98;141.52;;;;;;;-140.79;100.00;63287.88;4946742;28;20058;-87
2021/03/30 04:29:41;;;;;;;158.75;104.00;;;;;;;-140.79;100.00;63287.88;4965068;28;20035;-74
2021/03/30 04:32:07;;;;;;;279.90;160.00;;;;;;;-140.79;100.00;63287.88;4975304;28;20030;-75
2021/03/30 04:34:33;;;;;;;352.80;195.25;;;;;;;-140.79;100.00;63287.88;4961566;28;20062;-76
2021/03/30 04:36:59;;;;;;;349.38;192.68;;;;;;;-140.79;100.00;63287.88;4962981;28;20053;-76
2021/03/30 04:39:24;;;;;;;389.90;220.23;;;;;;;-140.79;100.00;63287.88;4960835;28;20031;-75
2021/03/30 04:41:50;;;;;;;408.75;232.80;;;;;;;-140.79;100.00;63287.88;4955869;28;20579;-80
2021/03/30 04:44:15;;;;;;;405.67;229.55;;;;;;;-140.79;100.00;63287.88;4956457;28;20024;-78
2021/03/30 04:46:41;;;;;;;434.08;250.77;;;;;;;-140.79;100.00;63287.88;4961877;28;20030;-78
2021/03/30 04:49:06;;;;;;;423.60;244.32;;;;;;;-140.79;100.00;63287.88;4961534;28;20433;-80
2021/03/30 04:51:32;;;;;;;406.73;231.43;;;;;;;-140.79;100.00;63287.88;4962117;28;20027;-80
2021/03/30 04:53:57;;;;;;;432.98;248.70;;;;;;;-140.79;100.00;63287.88;4953506;28;20027;-76
2021/03/30 04:56:23;;;;;;;417.60;240.07;;;;;;;-140.79;100.00;63287.88;4958677;28;20416;-76
2021/03/30 04:58:48;;;;;;;449.80;262.02;;;;;;;-140.79;100.00;63287.88;4957482;28;20101;-79
2021/03/30 05:01:14;;;;;;;419.60;241.10;;;;;;;-140.79;100.00;63287.88;4948903;28;20027;-76
2021/03/30 05:03:39;;;;;;;436.17;251.85;;;;;;;-140.79;100.00;63287.88;4968163;28;20427;-76
2021/03/30 05:06:05;;;;;;;461.15;267.85;;;;;;;-140.79;100.00;63287.88;4950493;28;20086;-82
2021/03/30 05:08:30;;;;;;;495.90;292.48;;;;;;;-140.79;100.00;63287.88;4951308;28;20029;-86
2021/03/30 05:10:56;;;;;;;482.90;283.20;;;;;;;-140.79;100.00;63287.88;4941849;28;20327;-79
2021/03/30 05:13:22;;;;;;;521.05;310.50;;;;;;;-140.79;100.00;63287.88;4954596;28;20035;-81
2021/03/30 05:15:47;;;;;;;515.83;307.25;;;;;;;-140.79;100.00;63287.88;4953014;28;20125;-81
2021/03/30 05:18:13;;;;;;;494.60;288.92;;;;;;;-140.79;100.00;63287.88;4981924;28;20030;-80
2021/03/30 05:20:38;;;;;;;502.08;296.10;;;;;;;-140.79;100.00;63287.88;4960123;28;20031;-78
2021/03/30 05:23:04;;;;;;;508.40;298.95;;;;;;;-140.79;100.00;63287.88;4983510;28;20026;-78
2021/03/30 05:25:29;;;;;;;519.35;315.05;;;;;;;-140.79;100.00;63287.88;4945100;28;20033;-78
2021/03/30 05:27:55;;;;;;;491.45;286.92;;;;;;;-140.79;100.00;63287.88;4966990;28;20026;-77
2021/03/30 05:30:20;;;;;;;519.20;305.83;;;;;;;-140.79;100.00;63287.88;4953807;28;20024;-79
2021/03/30 05:32:46;;;;;;;491.25;287.50;;;;;;;-140.79;100.00;63287.88;4976402;28;20069;-77
2021/03/30 05:35:12;;;;;;;486.80;280.85;;;;;;;-140.79;100.00;63287.88;4961399;28;20042;-77
2021/03/30 05:37:37;;;;;;;485.33;284.23;;;;;;;-140.79;100.00;63287.88;4967542;28;20023;-79
2021/03/30 05:40:09;;;;;;;499.65;292.02;;;;;;;-140.79;100.00;63287.88;4965248;28;20505;-78
2021/03/30 05:42:34;;;;;;;538.17;320.02;;;;;;;-140.79;100.00;63287.88;4967058;28;20496;-77
2021/03/30 05:45:00;;;;;;;547.33;326.70;;;;;;;-140.79;100.00;63287.88;4966541;28;20099;-80
2021/03/30 05:47:27;;;;;;;534.33;316.83;;;;;;;-140.79;100.00;63287.88;4944858;28;20032;-80
2021/03/30 05:49:53;;;;;;;537.00;319.30;;;;;;;-140.79;100.00;63287.88;4955144;29;20031;-81
2021/03/30 05:53:19;;;;;;;532.45;317.75;;;;;;;-140.79;100.00;63287.88;4980194;28;20110;-78
2021/03/30 05:55:27;;;;;;;545.80;323.30;;;;;;;-140.79;100.00;63287.88;4953019;28;20511;-76
2021/03/30 05:57:54;;;;;;;536.63;316.25;;;;;;;-140.79;100.00;63287.88;4955575;28;20061;-79
2021/03/30 06:00:28;;;;;;;512.22;300.95;;;;;;;-140.79;100.00;63287.88;4962966;28;20035;-80
2021/03/30 06:02:54;;;;;;;539.42;318.00;;;;;;;-140.79;100.00;63287.88;4956123;28;20058;-79
2021/03/30 06:05:20;;;;;;;524.10;309.45;;;;;;;-140.79;100.00;63287.88;4949372;28;20551;-77
2021/03/30 06:07:45;;;;;;;509.35;305.05;;;;;;;-140.79;100.00;63287.88;4951846;28;20122;-76
2021/03/30 06:10:14;;;;;;;529.10;312.42;;;;;;;-140.79;100.00;63287.88;4947547;28;20484;-75
2021/03/30 06:12:39;;;;;;;513.55;306.75;;;;;;;-140.79;100.00;63287.88;4962166;28;20035;-77
2021/03/30 06:16:51;;;;;;;6.15;2.15;;;;;;;25.51;33.30;96120.13;5098996;27;20359;-71
2021/03/30 06:19:17;;;;;;;5.88;2.17;;;;;;;25.58;33.35;96132.59;5089981;28;20043;-71
2021/03/30 06:21:59;;;;;;;13.13;1.95;;;;;;;25.59;33.26;96132.09;5086283;28;20040;-71
2021/03/30 06:24:24;;;;;;;10.60;2.20;;;;;;;25.63;33.04;96142.78;5084747;28;20028;-71
2021/03/30 06:26:56;;;;;;;8.13;1.95;;;;;;;25.63;33.13;96137.31;5083534;28;20573;-71
2021/03/30 06:29:35;;;;;;;9.93;1.90;;;;;;;25.65;32.94;96140.31;5082979;28;20024;-71
2021/03/30 06:32:04;;;;;;;8.15;1.88;;;;;;;25.63;33.27;96137.31;5083707;28;20535;-71
2021/03/30 06:34:31;;;;;;;7.40;2.03;;;;;;;25.59;32.95;96134.81;5085160;28;20074;-72
2021/03/30 06:36:56;;;;;;;7.55;1.98;;;;;;;25.59;32.95;96131.31;5083995;28;20026;-71
2021/03/30 06:39:37;;;;;;;7.00;2.20;;;;;;;25.54;33.04;96134.81;5084574;28;20126;-72
2021/03/30 06:42:13;;;;;;;5.95;2.40;;;;;;;25.49;33.08;96133.56;5084137;28;20024;-72
2021/03/30 06:44:39;;;;;;;10.20;2.40;;;;;;;25.16;33.31;96094.50;5085952;28;20123;-71
2021/03/30 06:47:16;;;;;;;5.20;1.85;;;;;;;25.35;33.21;96133.78;5085191;28;20024;-72
2021/03/30 06:49:54;;;;;;;6.70;2.03;;;;;;;25.29;33.79;96127.59;5085645;28;20062;-71
2021/03/30 06:52:26;;;;;;;4.90;1.55;;;;;;;25.16;33.77;96121.84;5083077;28;20028;-71
2021/03/30 06:54:59;;;;;;;7.50;2.47;;;;;;;25.14;33.62;96124.31;5082190;28;20039;-72
2021/03/30 06:57:37;;;;;;;4.90;1.90;;;;;;;25.03;33.79;96123.53;5083217;28;20641;-71
2021/03/30 07:00:09;;;;;;;6.07;1.88;;;;;;;24.96;34.24;96127.47;5077747;28;20026;-71
2021/03/30 07:02:40;;;;;;;5.68;1.77;;;;;;;24.94;34.53;96132.66;5083876;28;20111;-68
2021/03/30 07:05:07;;;;;;;7.40;2.00;;;;;;;24.83;34.97;96129.91;5084410;28;20272;-68
2021/03/30 07:07:33;;;;;;;8.13;1.95;;;;;;;24.81;35.33;96139.09;5086710;28;20032;-68
2021/03/30 07:09:59;;;;;;;5.88;1.77;;;;;;;24.71;35.07;96124.13;5067863;28;20028;-68
2021/03/30 07:12:24;;;;;;;3.42;1.80;;;;;;;24.36;35.17;96077.34;5088309;28;20030;-68
2021/03/30 07:14:50;;;;;;;3.67;1.95;;;;;;;24.63;35.21;96134.06;5089541;28;20428;-68
2021/03/30 07:17:22;;;;;;;7.45;1.90;;;;;;;24.56;35.16;96134.53;5085904;28;20047;-68
2021/03/30 07:19:47;;;;;;;5.45;1.92;;;;;;;24.49;35.08;96140.44;5085232;28;20092;-68
2021/03/30 07:22:13;;;;;;;6.40;1.88;;;;;;;23.92;34.97;96057.97;5087499;28;20032;-67
2021/03/30 07:24:41;;;;;;;5.63;1.67;;;;;;;24.31;35.15;96127.16;5069526;28;20028;-68
2021/03/30 07:27:12;;;;;;;6.32;1.83;;;;;;;24.09;35.07;96094.28;5060298;28;20017;-68
2021/03/30 07:29:45;;;;;;;6.25;2.20;;;;;;;24.04;35.01;96099.72;5057110;28;20043;-68
2021/03/30 07:32:31;;;;;;;3.92;1.52;;;;;;;24.21;35.51;96131.31;5069223;28;20028;-68
2021/03/30 07:35:01;;;;;;;4.63;1.88;;;;;;;24.12;35.00;96128.03;5070934;28;20454;-68
2021/03/30 07:37:35;;;;;;;4.35;1.98;;;;;;;24.11;35.12;96132.78;5069793;28;20035;-68
2021/03/30 07:40:01;;;;;;;5.75;1.90;;;;;;;23.83;35.42;96105.78;5070827;28;20503;-68
2021/03/30 07:42:27;;;;;;;5.28;2.45;;;;;;;24.01;35.10;96134.19;5054183;28;20210;-68
2021/03/30 07:44:52;;;;;;;3.83;1.67;;;;;;;23.97;35.22;96130.19;5073866;28;20511;-68
2021/03/30 07:47:18;;;;;;;5.03;2.10;;;;;;;23.93;35.31;96144.06;5068021;28;20523;-68
2021/03/30 07:49:48;;;;;;;4.55;1.98;;;;;;;23.88;35.40;96142.03;5053192;28;20044;-69
2021/03/30 07:52:29;;;;;;;;;;;;;;;23.84;35.25;96134.56;5103573;27;20036;-68
2021/03/30 07:55:25;;;;;;;3.67;2.10;;;;;;;23.81;35.66;96138.25;5069275;28;19923;-68
2021/03/30 07:58:10;;;;;;;5.00;2.58;;;;;;;23.76;35.43;96139.69;5061355;28;20039;-68
2021/03/30 08:00:38;;;;;;;4.95;1.98;;;;;;;23.73;35.11;96137.19;5072560;28;20032;-67
2021/03/30 08:03:18;;;;;;;3.65;1.60;;;;;;;23.71;35.60;96142.41;5070584;28;20078;-68
2021/03/30 08:05:44;;;;;;;3.80;1.88;;;;;;;23.65;35.73;96139.63;5078871;28;20028;-67
2021/03/30 08:08:20;;;;;;;4.22;1.75;;;;;;;23.65;35.71;96144.34;5071699;28;20558;-68
2021/03/30 08:10:46;;;;;;;3.60;1.92;;;;;;;23.55;35.68;96140.25;5071240;28;20054;-67
2021/03/30 08:13:33;;;;;;;6.35;1.73;;;;;;;23.58;35.38;96144.72;5073580;28;20097;-68
2021/03/30 08:16:11;;;;;;;3.70;1.80;;;;;;;23.54;35.94;96138.75;5071427;28;20053;-68
2021/03/30 08:18:39;;;;;;;4.47;1.70;;;;;;;23.50;35.33;96138.22;5066342;28;20040;-68
2021/03/30 08:21:05;;;;;;;5.38;1.77;;;;;;;23.49;35.74;96137.47;5071343;28;20032;-68
2021/03/30 08:23:58;;;;;;;2.95;1.80;;;;;;;23.47;35.15;96133.75;5069639;28;20773;-68
2021/03/30 08:26:25;;;;;;;3.55;1.70;;;;;;;23.43;35.58;96138.66;5067230;28;20035;-69
2021/03/30 08:29:09;;;;;;;4.25;1.80;;;;;;;23.40;35.47;96139.63;5071376;28;20036;-68
2021/03/30 08:31:35;;;;;;;3.50;1.77;;;;;;;23.39;35.30;96135.38;5070428;28;20580;-69
2021/03/30 08:34:14;;;;;;;6.10;2.10;;;;;;;23.36;35.31;96136.34;5070254;28;20050;-68
2021/03/30 08:36:51;;;;;;;4.90;1.90;;;;;;;23.34;35.04;96136.09;5069943;28;20020;-69
2021/03/30 08:39:20;;;;;;;4.47;1.83;;;;;;;23.33;35.14;96134.59;5068936;28;20156;-70
2021/03/30 08:41:46;;;;;;;4.13;1.92;;;;;;;23.31;35.27;96126.16;5069108;28;20032;-69
2021/03/30 08:44:28;;;;;;;4.03;2.28;;;;;;;23.31;35.60;96142.50;5069939;28;20046;-68
2021/03/30 08:46:56;;;;;;;3.38;1.90;;;;;;;23.28;35.85;96132.56;5070297;28;20024;-68
2021/03/30 08:49:40;;;;;;;4.00;2.08;;;;;;;23.27;35.70;96139.25;5070067;28;20032;-69
2021/03/30 08:52:13;;;;;;;4.43;2.05;;;;;;;23.25;35.44;96138.97;5068674;28;20028;-68
2021/03/30 08:54:53;;;;;;;5.35;1.90;;;;;;;23.11;35.63;96112.59;5070383;28;20024;-68
2021/03/30 08:57:25;;;;;;;3.75;1.92;;;;;;;23.23;35.34;96129.78;5068140;28;20104;-69
2021/03/30 08:59:50;;;;;;;2.97;1.88;;;;;;;23.21;35.31;96127.53;5070595;28;20033;-68
2021/03/30 09:02:22;;;;;;;3.92;1.98;;;;;;;23.20;35.56;96125.28;5067254;28;20081;-71
2021/03/30 09:04:48;;;;;;;3.22;1.67;;;;;;;23.16;35.75;96122.78;5070201;28;20036;-70
2021/03/30 09:07:13;;;;;;;3.20;1.70;;;;;;;23.18;35.73;96117.59;5095072;27;20040;-70
2021/03/30 09:09:39;;;;;;;4.32;1.88;;;;;;;23.20;35.89;96123.34;5070101;28;20145;-68
2021/03/30 09:12:25;;;;;;;2.85;1.48;;;;;;;23.21;35.94;96126.78;5069042;28;20067;-70
2021/03/30 09:15:10;;;;;;;3.25;1.45;;;;;;;23.21;36.19;96105.72;5049849;28;20045;-69
2021/03/30 09:17:51;;;;;;;3.13;1.75;;;;;;;23.18;35.72;96098.50;5068100;28;20056;-70
2021/03/30 09:20:17;;;;;;;2.70;1.73;;;;;;;22.98;35.37;96059.69;5071031;28;20031;-70
2021/03/30 09:22:45;;;;;;;3.60;1.55;;;;;;;23.26;34.99;96094.16;5062545;28;20036;-70
2021/03/30 09:27:44;;;;;;;4.05;1.85;;;;;;;23.11;34.64;96060.81;5067546;28;20056;-70
2021/03/30 09:30:16;;;;;;;3.53;1.58;;;;;;;23.46;34.39;96094.06;5055327;28;20501;-70
2021/03/30 09:32:42;;;;;;;3.92;1.58;;;;;;;23.51;35.09;96109.72;5072132;28;20039;-73
2021/03/30 09:35:17;;;;;;;5.85;2.28;;;;;;;23.54;34.96;96112.25;5071553;28;20028;-72
2021/03/30 09:37:45;;;;;;;4.50;2.10;;;;;;;23.62;35.58;96101.66;5067942;28;20032;-71
2021/03/30 09:40:12;;;;;;;4.97;2.50;;;;;;;23.69;35.44;96098.47;5066929;28;20029;-71
2021/03/30 09:42:39;;;;;;;6.47;2.10;;;;;;;23.79;35.33;96105.25;5066486;28;20389;-71
2021/03/30 09:45:05;;;;;;;4.30;2.20;;;;;;;23.80;35.31;96084.94;5050196;28;20485;-71
2021/03/30 09:47:31;;;;;;;3.97;1.80;;;;;;;23.72;35.43;96045.69;5050370;28;20463;-71
2021/03/30 09:49:57;;;;;;;3.40;1.80;;;;;;;24.02;35.04;96086.56;5056250;28;20353;-73
2021/03/30 09:52:22;;;;;;;4.38;1.92;;;;;;;24.11;35.15;96078.19;5049938;28;20524;-73
2021/03/30 09:54:48;;;;;;;4.15;2.10;;;;;;;24.17;34.91;96073.50;5070857;28;20791;-71
2021/03/30 09:57:28;;;;;;;4.45;1.90;;;;;;;24.12;34.99;96052.38;5060580;28;20032;-71
2021/03/30 09:59:53;;;;;;;;;;;;;;;24.43;35.13;96079.59;5054227;28;20101;-72
2021/03/30 10:02:29;;;;;;;3.78;1.90;;;;;;;24.53;34.67;96075.44;5076668;28;19994;-80
2021/03/30 10:04:56;;;;;;;3.88;1.70;;;;;;;24.44;34.41;96051.06;5050642;28;20020;-72
2021/03/30 10:07:23;;;;;;;4.28;2.38;;;;;;;24.64;34.60;96065.28;5068251;28;20104;-73
2021/03/30 10:09:58;;;;;;;3.80;1.55;;;;;;;24.80;34.75;96072.00;5085633;28;20050;-74
2021/03/30 10:12:33;;;;;;;5.00;1.90;;;;;;;24.81;34.05;96057.13;5066035;28;20032;-74
2021/03/30 10:14:59;;;;;;;4.32;2.20;;;;;;;24.64;34.70;96023.56;5071616;28;20036;-72
2021/03/30 10:17:25;;;;;;;2.78;1.70;;;;;;;24.97;34.14;96060.63;5071658;28;20025;-72
2021/03/30 10:19:51;;;;;;;3.10;1.80;;;;;;;25.08;34.29;96071.63;5071462;28;20032;-71
2021/03/30 10:22:32;;;;;;;3.20;1.58;;;;;;;25.11;34.09;96048.00;5067465;28;20899;-72
2021/03/30 10:25:10;;;;;;;3.25;1.50;;;;;;;25.24;33.96;96061.94;5045595;28;20086;-73
2021/03/30 10:27:37;;;;;;;3.63;1.80;;;;;;;25.00;33.73;95999.53;5072191;28;20021;-72
2021/03/30 10:30:04;;;;;;;2.55;1.30;;;;;;;24.98;33.59;95996.53;5070864;28;20020;-73
2021/03/30 10:32:32;;;;;;;2.63;1.65;;;;;;;25.39;33.36;96035.84;5066392;28;20016;-74
2021/03/30 10:34:58;;;;;;;3.22;1.50;;;;;;;25.35;33.66;96024.41;5069264;28;20033;-73
2021/03/30 10:37:24;;;;;;;2.80;1.80;;;;;;;25.52;33.65;96038.81;5067439;28;20109;-73
2021/03/30 10:39:49;;;;;;;3.53;1.75;;;;;;;25.54;33.64;96050.00;5067214;28;20033;-74
2021/03/30 10:42:16;;;;;;;4.70;1.90;;;;;;;25.60;33.38;96039.81;5068452;28;20021;-74
2021/03/30 10:44:43;;;;;;;4.18;1.90;;;;;;;25.68;33.53;96046.28;5068239;28;20032;-74
2021/03/30 10:47:20;;;;;;;6.05;1.58;;;;;;;25.75;33.19;96045.78;5068457;28;20101;-73
2021/03/30 10:49:46;;;;;;;3.17;1.58;;;;;;;25.78;33.19;96051.00;5067283;28;20092;-74
2021/03/30 10:52:16;;;;;;;3.42;1.80;;;;;;;25.80;33.10;96032.84;5052673;28;20052;-73
2021/03/30 10:54:43;;;;;;;3.67;1.58;;;;;;;25.87;32.97;96037.06;5067632;28;20043;-74
2021/03/30 10:57:12;;;;;;;3.63;2.33;;;;;;;25.88;33.15;96027.59;5069846;28;20139;-74
2021/03/30 10:59:38;;;;;;;3.45;1.40;;;;;;;25.94;33.40;96031.81;5067693;28;21211;-75
2021/03/30 11:02:03;;;;;;;2.97;1.80;;;;;;;25.94;32.76;96020.84;5070768;28;20422;-74
2021/03/30 11:04:29;;;;;;;3.70;2.00;;;;;;;26.03;32.75;96028.78;5071341;28;20039;-73
2021/03/30 11:06:54;;;;;;;2.83;1.27;;;;;;;26.01;32.63;96008.66;5070779;28;20047;-74
2021/03/30 11:09:20;;;;;;;3.92;1.50;;;;;;;26.05;32.84;96009.91;5036607;28;20500;-73
2021/03/30 11:11:45;;;;;;;3.33;1.42;;;;;;;26.11;32.79;96007.84;5071888;28;20028;-75
2021/03/30 11:14:11;;;;;;;1.88;1.27;;;;;;;26.19;32.69;96014.31;5070440;28;20049;-74
2021/03/30 11:16:37;;;;;;;2.90;1.52;;;;;;;26.23;32.54;96020.25;5072443;28;20048;-73
2021/03/30 11:19:03;;;;;;;2.72;1.50;;;;;;;26.27;32.27;96009.78;5069722;28;20262;-72